Flight Track Log - Related Links

Times and Time Zones

All times are in EDT time to prevent confusion due to time zone crossing. See the DAL2352 flight status page for this flight to view local times or setup timezone preferences in your user account.

Time Position Orientation Groundspeed Altitude Reporting Facility
EDT Latitude Longitude Course Direction KTS MPH feet Rate Location/Type
Fri 06:21:27 AM 42.7278 -73.8081 180° South 142 163 1,400  Level Boston Center
Fri 06:22:34 AM 42.6981 -73.8583 231° Southwest 203 234 3,300 1,663 Climbing Boston Center
Fri 06:23:08 AM 42.6953 -73.8950 264° West 218 251 4,200 2,426 Climbing Boston Center
Fri 06:24:00 AM 42.5088 -74.1379 200° South  Level Estimated
Fri 06:24:08 AM 42.6900 -73.9908 266° West 240 276 7,100  Level Boston Center
Fri 06:25:00 AM 42.4284 -74.2493 198° South  Level Estimated
Fri 06:25:08 AM 42.6742 -74.0836 257° West 254 292 9,900  Level Boston Center
Fri 06:26:00 AM 42.3480 -74.3605 180° South  Level Estimated
Fri 06:26:08 AM 42.5842 -74.0953 185° South 246 283 11,500  Level Boston Center
Fri 06:27:08 AM 42.4908 -74.0789 173° South 323 372 12,900 1,950 Climbing Boston Center
Fri 06:28:08 AM 42.3681 -74.0558 172° South 390 449 15,400 2,250 Climbing Boston Center
Fri 06:29:08 AM 42.2642 -74.0419 174° South 417 480 17,400 1,750 Climbing Boston Center
Fri 06:30:08 AM 42.1600 -74.0394 179° South 423 487 18,900 1,700 Climbing Boston Center
Fri 06:31:08 AM 42.0264 -74.0528 184° South 423 487 20,800 1,750 Climbing Boston Center
Fri 06:32:08 AM 41.9033 -74.0608 183° South 436 502 22,400 1,650 Climbing Boston Center
Fri 06:33:08 AM 41.7656 -74.0628 181° South 448 516 24,100 1,629 Climbing Boston Center
Fri 06:34:39 AM 41.6006 -74.0750 183° South 437 503 26,500 1,788 Climbing New York Center
Fri 06:35:39 AM 41.4650 -74.0822 182° South 437 503 28,600 1,700 Climbing New York Center
Fri 06:36:39 AM 41.3442 -74.0900 183° South 445 512 29,900 1,300 Climbing New York Center
Fri 06:37:39 AM 41.2253 -74.0953 182° South 445 512 31,200 1,131 Climbing New York Center
Fri 06:38:41 AM 41.1133 -74.1475 199° South 435 501 32,200 1,400 Climbing New York Center
Fri 06:39:39 AM 41.0306 -74.2672 228° Southwest 401 461 34,000 1,017 Climbing New York Center
Fri 06:40:39 AM 40.9564 -74.3869 231° Southwest 401 461 34,200 400 Climbing New York Center
Fri 06:41:39 AM 40.8839 -74.5064 231° Southwest 413 475 34,800 541 Climbing New York Center
Fri 06:42:41 AM 40.8114 -74.6231 231° Southwest 418 481 35,300 443 Climbing New York Center
Fri 06:43:41 AM 40.7364 -74.7450 231° Southwest 423 487 35,700 356 Climbing New York Center
Fri 06:44:39 AM 40.6636 -74.8664 232° Southwest 429 494 36,000  Climbing New York Center
Fri 06:45:40 AM 40.5883 -74.9906 231° Southwest 429 494 35,700 -836 Descending New York Center
Fri 06:46:41 AM 40.5153 -75.1089 231° Southwest 429 494 34,300 -1,815 Descending New York Center
Fri 06:47:39 AM 40.4419 -75.2297 231° Southwest 429 494 32,100 -1,169 Descending New York Center
Fri 06:48:39 AM 40.3664 -75.3528 231° Southwest 429 494 32,000 -49 Descending New York Center
Fri 06:49:41 AM 40.2928 -75.4731 231° Southwest 429 494 32,000  Level New York Center
Fri 06:50:41 AM 40.2239 -75.5828 231° Southwest 429 494 32,000  Level New York Center
Fri 06:51:39 AM 40.1500 -75.7025 231° Southwest 434 499 32,000  Level New York Center
Fri 06:52:40 AM 40.0742 -75.8247 231° Southwest 434 499 32,000  Level New York Center
Fri 06:53:39 AM 39.9958 -75.9464 230° Southwest 434 499 32,000  Level New York Center
Fri 06:54:39 AM 39.9192 -76.0733 232° Southwest 434 499 32,000  Level New York Center
Fri 06:55:41 AM 39.8408 -76.1944 230° Southwest 439 505 32,000  Level New York Center
Fri 06:56:40 AM 39.7600 -76.3178 230° Southwest 445 512 32,000  Level New York Center
Fri 06:57:39 AM 39.6811 -76.4411 230° Southwest 450 518 32,000  Level New York Center
Fri 06:58:30 AM 39.6078 -76.5531 230° Southwest 454 522 32,000  Level Washington Center
Fri 06:59:30 AM 39.5297 -76.6731 230° Southwest 454 522 32,000  Level Washington Center
Fri 07:00:32 AM 39.4556 -76.7958 232° Southwest 449 517 32,000  Level Washington Center
Fri 07:01:30 AM 39.3772 -76.9153 230° Southwest 444 511 32,000  Level Washington Center
Fri 07:02:31 AM 39.3008 -77.0372 231° Southwest 444 511 32,000  Level Washington Center
Fri 07:03:30 AM 39.2222 -77.1561 230° Southwest 444 511 32,000  Level Washington Center
Fri 07:04:30 AM 39.1433 -77.2750 229° Southwest 444 511 32,000  Level Washington Center
Fri 07:05:32 AM 39.0644 -77.3933 229° Southwest 444 511 32,000  Level Washington Center
Fri 07:06:32 AM 38.9836 -77.5117 229° Southwest 444 511 32,000  Level Washington Center
Fri 07:07:30 AM 38.9022 -77.6322 229° Southwest 449 517 32,000  Level Washington Center
Fri 07:08:32 AM 38.8294 -77.7422 230° Southwest 449 517 32,000  Level Washington Center
Fri 07:09:32 AM 38.7458 -77.8675 229° Southwest 462 532 32,000  Level Washington Center
Fri 07:10:30 AM 38.6664 -77.9872 230° Southwest 456 525 32,000  Level Washington Center
Fri 07:11:30 AM 38.5892 -78.1017 229° Southwest 446 513 32,000  Level Washington Center
Fri 07:12:30 AM 38.5053 -78.2236 229° Southwest 446 513 32,000  Level Washington Center
Fri 07:13:31 AM 38.4275 -78.3375 229° Southwest 446 513 32,000  Level Washington Center
Fri 07:14:31 AM 38.3456 -78.4561 229° Southwest 446 513 32,000  Level Washington Center
Fri 07:15:29 AM 38.2631 -78.5878 231° Southwest 446 513 32,000  Level Washington Center
Fri 07:16:30 AM 38.1831 -78.7036 229° Southwest 446 513 32,000  Level Washington Center
Fri 07:17:29 AM 38.1069 -78.8139 229° Southwest 446 513 32,000  Level Washington Center
Fri 07:18:30 AM 38.0244 -78.9342 229° Southwest 446 513 32,000  Level Washington Center
Fri 07:19:41 AM 37.9419 -79.0517 228° Southwest 452 520 32,000  Level Washington Center
Fri 07:20:42 AM 37.8397 -79.1942 228° Southwest 452 520 32,000  Level Washington Center
Fri 07:21:42 AM 37.7461 -79.3236 228° Southwest 452 520 32,000  Level Washington Center
Fri 07:22:42 AM 37.6675 -79.4300 227° Southwest 458 527 32,000  Level Washington Center
Fri 07:23:42 AM 37.5736 -79.5617 228° Southwest 463 533 32,000  Level Washington Center
Fri 07:24:44 AM 37.4950 -79.6675 227° Southwest 463 533 32,000  Level Washington Center
Fri 07:25:42 AM 37.3964 -79.8058 228° Southwest 478 550 32,000  Level Washington Center
Fri 07:26:42 AM 37.3108 -79.9214 227° Southwest 472 543 32,000  Level Washington Center
Fri 07:28:17 AM 37.1714 -80.1083 227° Southwest 458 527 32,000  Level Atlanta Center
Fri 07:29:17 AM 37.0956 -80.2111 227° Southwest 458 527 32,000  Level Atlanta Center
Fri 07:30:17 AM 37.0114 -80.3269 228° Southwest 458 527 32,000  Level Atlanta Center
Fri 07:31:17 AM 36.9253 -80.4453 228° Southwest 458 527 32,000  Level Atlanta Center
Fri 07:32:17 AM 36.8308 -80.5714 227° Southwest 458 527 32,000  Level Atlanta Center
Fri 07:33:17 AM 36.7644 -80.6572 226° Southwest 458 527 32,000  Level Atlanta Center
Fri 07:34:17 AM 36.6639 -80.7908 227° Southwest 453 521 32,000  Level Atlanta Center
Fri 07:35:17 AM 36.5772 -80.9031 226° Southwest 453 521 32,000  Level Atlanta Center
Fri 07:36:17 AM 36.4944 -81.0172 228° Southwest 453 521 32,000  Level Atlanta Center
Fri 07:37:17 AM 36.4094 -81.1264 226° Southwest 453 521 32,000  Level Atlanta Center
Fri 07:38:17 AM 36.3311 -81.2478 231° Southwest 453 521 32,000  Level Atlanta Center
Fri 07:39:17 AM 36.2758 -81.3861 244° Southwest 453 521 32,000  Level Atlanta Center
Fri 07:40:17 AM 36.2242 -81.5164 244° Southwest 435 501 32,000  Level Atlanta Center
Fri 07:41:17 AM 36.1728 -81.6517 245° Southwest 429 494 32,000  Level Atlanta Center
Fri 07:42:17 AM 36.1189 -81.7869 244° Southwest 429 494 32,000  Level Atlanta Center
Fri 07:43:17 AM 36.0522 -81.9097 236° Southwest 435 501 32,000  Level Atlanta Center
Fri 07:44:17 AM 35.9600 -82.0094 221° Southwest 435 501 32,000  Level Atlanta Center
Fri 07:45:17 AM 35.8781 -82.0961 221° Southwest 441 507 32,000  Level Atlanta Center
Fri 07:46:17 AM 35.7836 -82.1906 219° Southwest 441 507 32,000  Level Atlanta Center
Fri 07:47:17 AM 35.6911 -82.2897 221° Southwest 441 507 32,000  Level Atlanta Center
Fri 07:48:17 AM 35.6008 -82.3836 220° Southwest 441 507 32,000  Level Atlanta Center
Fri 07:49:17 AM 35.5081 -82.4800 220° Southwest 441 507 32,000  Level Atlanta Center
Fri 07:50:17 AM 35.4194 -82.5733 221° Southwest 441 507 32,000  Level Atlanta Center
Fri 07:51:17 AM 35.3267 -82.6667 219° Southwest 435 501 32,000 -100 Level Atlanta Center
Fri 07:52:17 AM 35.2358 -82.7572 219° Southwest 435 501 31,800 -1,000 Descending Atlanta Center
Fri 07:53:17 AM 35.1408 -82.8500 219° Southwest 435 501 30,000 -900 Descending Atlanta Center
Fri 07:54:17 AM 35.0436 -82.9531 221° Southwest 448 516 30,000  Level Atlanta Center
Fri 07:55:17 AM 34.9486 -83.0481 219° Southwest 448 516 30,000  Level Atlanta Center
Fri 07:56:17 AM 34.8511 -83.1403 218° Southwest 448 516 30,000 -850 Level Atlanta Center
Fri 07:57:17 AM 34.7475 -83.2500 221° Southwest 448 516 28,300 -2,350 Descending Atlanta Center
Fri 07:58:17 AM 34.6647 -83.3317 219° Southwest 443 510 25,300 -2,600 Descending Atlanta Center
Fri 07:59:17 AM 34.5753 -83.4081 215° Southwest 423 487 23,100 -1,650 Descending Atlanta Center
Fri 08:00:17 AM 34.4839 -83.4869 215° Southwest 416 479 22,000 -950 Descending Atlanta Center
Fri 08:01:17 AM 34.3986 -83.5656 217° Southwest 395 455 21,200 -1,600 Descending Atlanta Center
Fri 08:02:17 AM 34.3050 -83.6514 217° Southwest 395 455 18,800 -2,300 Descending Atlanta Center
Fri 08:03:17 AM 34.2217 -83.7197 214° Southwest 385 443 16,600 -2,250 Descending Atlanta Center
Fri 08:04:17 AM 34.1447 -83.7928 218° Southwest 374 430 14,300 -1,350 Descending Atlanta Center
Fri 08:05:17 AM 34.0675 -83.8633 217° Southwest 356 410 13,900 -590 Descending Atlanta Center
Fri 08:06:19 AM 34.0000 -83.9500 227° Southwest 345 397 13,100 -724 Descending Atlanta TRACON
Fri 08:07:13 AM 33.9500 -84.0333 234° Southwest 337 388 12,500 -526 Descending Atlanta TRACON
Fri 08:08:13 AM 33.8833 -84.1167 226° Southwest 340 391 12,100 -250 Descending Atlanta TRACON
Fri 08:09:13 AM 33.8333 -84.2000 234° Southwest 339 390 12,000 -50 Descending Atlanta TRACON
Fri 08:10:13 AM 33.7667 -84.2833 226° Southwest 295 339 12,000 -316 Level Atlanta TRACON
Fri 08:11:07 AM 33.7333 -84.3667 244° Southwest 287 330 11,400 -1,434 Descending Atlanta TRACON
Fri 08:12:06 AM 33.7333 -84.4500 270° West 298 343 9,300 -2,000 Descending Atlanta TRACON
Fri 08:13:01 AM 33.7333 -84.5333 270° West 276 318 7,600 -1,617 Descending Atlanta TRACON
Fri 08:14:01 AM 33.7333 -84.6333 270° West 268 308 6,200 -1,250 Descending Atlanta TRACON
Fri 08:15:01 AM 33.7333 -84.7167 270° West 262 302 5,100 -579 Descending Atlanta TRACON
Fri 08:15:55 AM 33.7333 -84.8000 270° West 265 305 5,100  Level Atlanta TRACON
Fri 08:16:55 AM 33.7000 -84.8500 231° Southwest 240 276 5,100  Level Atlanta TRACON
Fri 08:17:55 AM 33.6500 -84.8167 151° Southeast 219 252 5,100  Level Atlanta TRACON
Fri 08:18:55 AM 33.6500 -84.7500 90° East 207 238 5,100 -53 Level Atlanta TRACON
Fri 08:19:49 AM 33.6500 -84.7000 90° East 209 241 5,000 -526 Descending Atlanta TRACON
Fri 08:20:49 AM 33.6500 -84.6333 90° East 208 239 4,100 -900 Descending Atlanta TRACON

Login

Don't have an account? Register now (free) for customized features, flight alerts, and more!